Time;durP1;ratioP1;P1;durP2;ratioP2;P2;SDS_P1;SDS_P2;PMS_P1;PMS_P2;Temp;Humidity;BMP_temperature;BMP_pressure;BME280_temperature;BME280_humidity;BME280_pressure;Samples;Min_cycle;Max_cycle;Signal;HPM_P1;HPM_P2
2022/04/23 00:01:43;;;;;;;57.90;35.40;;;;;;;-141.50;100.00;63355.56;5070395;28;20087;-77
2022/04/23 00:04:10;;;;;;;55.38;34.47;;;;;;;-141.50;100.00;63355.56;5071254;28;20098;-76
2022/04/23 00:06:37;;;;;;;56.28;34.63;;;;;;;-141.50;100.00;63355.56;5071790;28;20129;-76
2022/04/23 00:09:05;;;;;;;56.45;35.03;;;;;;;-141.50;100.00;63355.56;5072262;28;20083;-76
2022/04/23 00:11:32;;;;;;;55.08;34.85;;;;;;;-141.50;100.00;63355.56;5069653;28;20084;-77
2022/04/23 00:14:00;;;;;;;56.47;34.78;;;;;;;-141.50;100.00;63355.56;5070278;28;20057;-76
2022/04/23 00:16:27;;;;;;;52.88;34.47;;;;;;;-141.50;100.00;63355.56;5070902;28;20586;-79
2022/04/23 00:18:54;;;;;;;54.80;34.63;;;;;;;-141.50;100.00;63355.56;5074226;28;20080;-78
2022/04/23 00:21:21;;;;;;;55.10;34.75;;;;;;;-141.50;100.00;63355.56;5071042;28;20055;-76
2022/04/23 00:23:48;;;;;;;54.78;34.88;;;;;;;-141.50;100.00;63355.56;5070654;28;20076;-77
2022/04/23 00:26:15;;;;;;;52.95;33.63;;;;;;;-141.50;100.00;63355.56;5073253;28;20048;-76
2022/04/23 00:28:41;;;;;;;53.90;34.15;;;;;;;-141.50;100.00;63355.56;5070866;28;20136;-76
2022/04/23 00:31:08;;;;;;;54.90;34.33;;;;;;;-141.50;100.00;63355.56;5077279;28;20172;-76
2022/04/23 00:33:38;;;;;;;54.33;33.60;;;;;;;-141.50;100.00;63355.56;5087966;28;20095;-76
2022/04/23 00:36:05;;;;;;;54.97;33.47;;;;;;;-141.50;100.00;63355.56;5090134;28;20479;-77
2022/04/23 00:38:36;;;;;;;52.67;33.10;;;;;;;-141.50;100.00;63355.56;5088861;28;20131;-75
2022/04/23 00:41:03;;;;;;;52.67;34.13;;;;;;;-141.50;100.00;63355.56;5090375;28;20494;-76
2022/04/23 00:43:33;;;;;;;54.35;33.45;;;;;;;-141.50;100.00;63355.56;5090267;28;20048;-78
2022/04/23 00:46:02;;;;;;;57.88;34.65;;;;;;;-141.50;100.00;63355.56;5091418;28;20087;-75
2022/04/23 00:48:29;;;;;;;50.05;32.28;;;;;;;-141.50;100.00;63355.56;5088921;28;20496;-76
2022/04/23 00:50:58;;;;;;;53.10;32.25;;;;;;;-141.50;100.00;63355.56;5088861;28;20059;-77
2022/04/23 00:53:25;;;;;;;54.58;33.25;;;;;;;-141.50;100.00;63355.56;5090037;28;20228;-76
2022/04/23 00:55:52;;;;;;;51.20;32.95;;;;;;;-141.50;100.00;63355.56;5090563;28;20076;-76
2022/04/23 00:58:20;;;;;;;52.55;32.60;;;;;;;-141.50;100.00;63355.56;5078228;28;20457;-76
2022/04/23 01:00:47;;;;;;;49.00;32.00;;;;;;;-141.50;100.00;63355.56;5075552;28;20055;-76
2022/04/23 01:03:14;;;;;;;49.63;30.95;;;;;;;-141.50;100.00;63355.56;5091253;28;20056;-75
2022/04/23 01:05:46;;;;;;;48.03;30.52;;;;;;;-141.50;100.00;63355.56;5089623;28;20055;-78
2022/04/23 01:08:15;;;;;;;47.63;30.58;;;;;;;-141.50;100.00;63355.56;5087129;28;20183;-78
2022/04/23 01:10:43;;;;;;;54.00;30.88;;;;;;;-141.50;100.00;63355.56;5089018;28;20047;-77
2022/04/23 01:13:14;;;;;;;48.92;30.25;;;;;;;-141.50;100.00;63355.56;5088540;28;20105;-79
2022/04/23 01:15:56;;;;;;;46.10;29.58;;;;;;;-141.50;100.00;63355.56;5089641;28;20048;-76
2022/04/23 01:18:25;;;;;;;46.70;30.65;;;;;;;-141.50;100.00;63355.56;5089966;28;20044;-77
2022/04/23 01:20:56;;;;;;;48.88;31.48;;;;;;;-141.50;100.00;63355.56;5089230;28;20087;-78
2022/04/23 01:23:23;;;;;;;50.35;31.98;;;;;;;-141.50;100.00;63355.56;5089576;28;20140;-80
2022/04/23 01:25:53;;;;;;;51.63;32.90;;;;;;;-141.50;100.00;63355.56;5090470;28;20067;-78
2022/04/23 01:28:21;;;;;;;53.60;32.97;;;;;;;-141.50;100.00;63355.56;5091040;28;20105;-75
2022/04/23 01:30:49;;;;;;;50.90;32.03;;;;;;;-141.50;100.00;63355.56;5089483;28;20070;-78
2022/04/23 01:33:16;;;;;;;50.92;31.77;;;;;;;-141.50;100.00;63355.56;5090941;28;20048;-78
2022/04/23 01:35:43;;;;;;;56.10;33.28;;;;;;;-141.50;100.00;63355.56;5090200;28;20048;-78
2022/04/23 01:38:11;;;;;;;57.30;34.35;;;;;;;-141.50;100.00;63355.56;5090414;28;20048;-78
2022/04/23 01:40:37;;;;;;;57.50;34.10;;;;;;;-141.50;100.00;63355.56;5088435;28;20101;-76
2022/04/23 01:43:04;;;;;;;54.97;32.88;;;;;;;-141.50;100.00;63355.56;5090452;28;20105;-76
2022/04/23 01:45:31;;;;;;;56.65;33.05;;;;;;;-141.50;100.00;63355.56;5088144;28;20071;-78
2022/04/23 01:47:58;;;;;;;56.42;33.28;;;;;;;-141.50;100.00;63355.56;5087087;28;20093;-76
2022/04/23 01:50:24;;;;;;;58.83;32.95;;;;;;;-141.50;100.00;63355.56;5089591;28;20409;-78
2022/04/23 01:52:50;;;;;;;63.45;35.00;;;;;;;-141.50;100.00;63355.56;5087482;28;20453;-78
2022/04/23 01:55:17;;;;;;;65.20;35.15;;;;;;;-141.50;100.00;63355.56;5088557;28;20055;-77
2022/04/23 01:57:44;;;;;;;61.90;34.38;;;;;;;-141.50;100.00;63355.56;5087976;28;20075;-76
2022/04/23 02:00:13;;;;;;;65.35;35.38;;;;;;;-141.50;100.00;63355.56;5088893;28;20099;-76
2022/04/23 02:02:44;;;;;;;59.67;33.47;;;;;;;-141.50;100.00;63355.56;5088685;28;20092;-74
2022/04/23 02:05:11;;;;;;;60.95;35.80;;;;;;;-141.50;100.00;63355.56;5088638;28;20080;-77
2022/04/23 02:07:38;;;;;;;65.65;36.72;;;;;;;-141.50;100.00;63355.56;5089531;28;20173;-77
2022/04/23 02:10:11;;;;;;;62.83;35.53;;;;;;;-141.50;100.00;63355.56;5095537;28;20569;-76
2022/04/23 02:12:38;;;;;;;65.10;35.88;;;;;;;-141.50;100.00;63355.56;5093214;28;20056;-75
2022/04/23 02:15:09;;;;;;;57.75;33.80;;;;;;;-141.50;100.00;63355.56;5092691;28;20097;-75
2022/04/23 02:17:37;;;;;;;57.30;33.60;;;;;;;-141.50;100.00;63355.56;5092197;28;20115;-77
2022/04/23 02:20:14;;;;;;;56.42;33.00;;;;;;;-141.50;100.00;63355.56;5092475;28;20091;-76
2022/04/23 02:22:41;;;;;;;58.80;33.13;;;;;;;-141.50;100.00;63355.56;5094514;28;20087;-75
2022/04/23 02:25:08;;;;;;;58.30;33.75;;;;;;;-141.50;100.00;63355.56;5094212;28;20121;-77
2022/04/23 02:27:46;;;;;;;59.15;33.63;;;;;;;-141.50;100.00;63355.56;5092680;28;20123;-76
2022/04/23 02:30:14;;;;;;;56.53;33.95;;;;;;;-141.50;100.00;63355.56;5091979;28;20094;-80
2022/04/23 02:32:42;;;;;;;59.05;32.72;;;;;;;-141.50;100.00;63355.56;5091753;28;20488;-75
2022/04/23 02:35:09;;;;;;;57.40;32.50;;;;;;;-141.50;100.00;63355.56;5091264;28;20082;-77
2022/04/23 02:37:36;;;;;;;58.17;33.20;;;;;;;-141.50;100.00;63355.56;5091937;28;20073;-76
2022/04/23 02:40:05;;;;;;;60.88;33.55;;;;;;;-141.50;100.00;63355.56;5091302;28;20135;-75
2022/04/23 02:42:33;;;;;;;55.55;32.08;;;;;;;-141.50;100.00;63355.56;5094183;28;20564;-75
2022/04/23 02:45:02;;;;;;;56.05;31.73;;;;;;;-141.50;100.00;63355.56;5093003;28;20143;-75
2022/04/23 02:47:30;;;;;;;51.75;30.83;;;;;;;-141.50;100.00;63355.56;5092190;28;20079;-76
2022/04/23 02:49:56;;;;;;;56.80;30.45;;;;;;;-141.50;100.00;63355.56;5092128;28;20066;-77
2022/04/23 02:52:23;;;;;;;50.45;29.95;;;;;;;-141.50;100.00;63355.56;5093019;28;20059;-78
2022/04/23 02:54:50;;;;;;;51.22;29.77;;;;;;;-141.50;100.00;63355.56;5092523;28;20087;-78
2022/04/23 02:57:19;;;;;;;50.85;29.60;;;;;;;-141.50;100.00;63355.56;5093851;28;20305;-78
2022/04/23 02:59:47;;;;;;;54.00;31.30;;;;;;;-141.50;100.00;63355.56;5094070;28;20055;-77
2022/04/23 03:02:13;;;;;;;48.63;30.15;;;;;;;-141.50;100.00;63355.56;5082978;28;20104;-77
2022/04/23 03:04:40;;;;;;;49.58;29.23;;;;;;;-141.50;100.00;63355.56;5072839;28;20076;-76
2022/04/23 03:07:07;;;;;;;52.47;29.23;;;;;;;-141.50;100.00;63355.56;5077590;28;20138;-76
2022/04/23 03:09:33;;;;;;;50.88;29.10;;;;;;;-141.50;100.00;63355.56;5091172;28;20036;-77
2022/04/23 03:11:59;;;;;;;50.70;30.02;;;;;;;-141.50;100.00;63355.56;5072464;28;20099;-78
2022/04/23 03:14:26;;;;;;;50.70;29.40;;;;;;;-141.50;100.00;63355.56;5072427;28;20102;-76
2022/04/23 03:16:52;;;;;;;48.13;27.27;;;;;;;-141.50;100.00;63355.56;5072411;28;20711;-77
2022/04/23 03:19:19;;;;;;;48.90;27.63;;;;;;;-141.50;100.00;63355.56;5070723;28;20398;-76
2022/04/23 03:21:45;;;;;;;47.30;27.42;;;;;;;-141.50;100.00;63355.56;5070483;28;20122;-78
2022/04/23 03:24:12;;;;;;;52.88;28.77;;;;;;;-141.50;100.00;63355.56;5072699;28;20083;-77
2022/04/23 03:26:38;;;;;;;47.25;27.23;;;;;;;-141.50;100.00;63355.56;5075392;28;20072;-76
2022/04/23 03:29:05;;;;;;;49.88;27.80;;;;;;;-141.50;100.00;63355.56;5072096;28;20143;-77
2022/04/23 03:31:31;;;;;;;46.13;27.52;;;;;;;-141.50;100.00;63355.56;5070353;28;20186;-76
2022/04/23 03:33:58;;;;;;;49.65;28.45;;;;;;;-141.50;100.00;63355.56;5070818;28;20052;-77
2022/04/23 03:36:25;;;;;;;47.72;28.35;;;;;;;-141.50;100.00;63355.56;5069570;28;20070;-76
2022/04/23 03:38:51;;;;;;;49.45;27.95;;;;;;;-141.50;100.00;63355.56;5070053;28;20079;-76
2022/04/23 03:41:18;;;;;;;48.13;27.73;;;;;;;-141.50;100.00;63355.56;5070933;28;20049;-77
2022/04/23 03:43:45;;;;;;;49.70;28.00;;;;;;;-141.50;100.00;63355.56;5069862;28;20544;-75
2022/04/23 03:46:12;;;;;;;50.22;27.20;;;;;;;-141.50;100.00;63355.56;5071030;28;20523;-76
2022/04/23 03:48:38;;;;;;;48.92;27.45;;;;;;;-141.50;100.00;63355.56;5070364;28;20143;-77
2022/04/23 03:51:05;;;;;;;55.65;27.52;;;;;;;-141.50;100.00;63355.56;5071618;28;20099;-76
2022/04/23 03:53:32;;;;;;;47.13;26.10;;;;;;;-141.50;100.00;63355.56;5073108;28;20052;-77
2022/04/23 03:55:58;;;;;;;45.33;26.48;;;;;;;-141.50;100.00;63355.56;5070673;28;20060;-75
2022/04/23 03:58:26;;;;;;;46.53;26.38;;;;;;;-141.50;100.00;63355.56;5082047;28;20044;-75
2022/04/23 04:00:53;;;;;;;48.17;26.17;;;;;;;-141.50;100.00;63355.56;5095812;28;20281;-77
2022/04/23 04:03:19;;;;;;;47.38;25.27;;;;;;;-141.50;100.00;63355.56;5097951;28;20087;-77
2022/04/23 04:05:48;;;;;;;51.00;26.80;;;;;;;-141.50;100.00;63355.56;5091127;28;20052;-77
2022/04/23 04:08:14;;;;;;;47.85;26.88;;;;;;;-141.50;100.00;63355.56;5089560;28;20043;-77
2022/04/23 04:10:41;;;;;;;48.75;27.65;;;;;;;-141.50;100.00;63355.56;5090867;28;20059;-76
2022/04/23 04:13:10;;;;;;;47.22;26.73;;;;;;;-141.50;100.00;63355.56;5090538;28;20047;-77
2022/04/23 04:15:37;;;;;;;52.00;27.83;;;;;;;-141.50;100.00;63355.56;5089919;28;20060;-77
2022/04/23 04:18:05;;;;;;;49.60;26.60;;;;;;;-141.50;100.00;63355.56;5091043;28;20048;-75
2022/04/23 04:20:32;;;;;;;45.85;25.42;;;;;;;-141.50;100.00;63355.56;5097006;28;20260;-76
2022/04/23 04:23:00;;;;;;;48.35;25.33;;;;;;;-141.50;100.00;63355.56;5098588;28;20055;-77
2022/04/23 04:25:26;;;;;;;50.45;26.73;;;;;;;-141.50;100.00;63355.56;5098605;28;20052;-76
2022/04/23 04:27:53;;;;;;;47.40;26.20;;;;;;;-141.50;100.00;63355.56;5101439;28;20077;-74
2022/04/23 04:30:20;;;;;;;46.35;25.92;;;;;;;-141.50;100.00;63355.56;5094958;28;20495;-76
2022/04/23 04:32:50;;;;;;;43.33;24.20;;;;;;;-141.50;100.00;63355.56;5088855;28;20052;-75
2022/04/23 04:35:16;;;;;;;45.90;25.33;;;;;;;-141.50;100.00;63355.56;5085466;28;20060;-75
2022/04/23 04:37:44;;;;;;;46.03;25.60;;;;;;;-141.50;100.00;63355.56;5076093;28;20076;-76
2022/04/23 04:40:11;;;;;;;48.03;26.25;;;;;;;-141.50;100.00;63355.56;5076831;28;20139;-75
2022/04/23 04:42:38;;;;;;;42.90;24.85;;;;;;;-141.50;100.00;63355.56;5086193;28;20048;-76
2022/04/23 04:45:05;;;;;;;44.10;25.95;;;;;;;-141.50;100.00;63355.56;5083026;28;20569;-75
2022/04/23 04:47:31;;;;;;;46.35;24.75;;;;;;;-141.50;100.00;63355.56;5080986;28;20087;-76
2022/04/23 04:49:57;;;;;;;40.67;24.95;;;;;;;-141.50;100.00;63355.56;5087462;28;20044;-76
2022/04/23 04:52:24;;;;;;;38.78;22.85;;;;;;;-141.50;100.00;63355.56;5090336;28;20075;-76
2022/04/23 04:54:55;;;;;;;37.65;23.10;;;;;;;-141.50;100.00;63355.56;5092229;28;20376;-76
2022/04/23 04:57:22;;;;;;;39.67;22.50;;;;;;;-141.50;100.00;63355.56;5105604;28;20124;-74
2022/04/23 04:59:48;;;;;;;41.30;22.92;;;;;;;-141.50;100.00;63355.56;5073047;28;20052;-78
2022/04/23 05:02:15;;;;;;;36.88;22.20;;;;;;;-141.50;100.00;63355.56;5072099;28;20060;-77
2022/04/23 05:04:42;;;;;;;33.00;20.35;;;;;;;-141.50;100.00;63355.56;5075002;28;20139;-80
2022/04/23 05:07:08;;;;;;;39.55;22.88;;;;;;;-141.50;100.00;63355.56;5074288;28;20095;-76
2022/04/23 05:09:35;;;;;;;35.03;21.05;;;;;;;-141.50;100.00;63355.56;5080668;28;20045;-76
2022/04/23 05:12:01;;;;;;;36.70;20.88;;;;;;;-141.50;100.00;63355.56;5075986;28;20048;-76
2022/04/23 05:14:28;;;;;;;40.28;21.83;;;;;;;-141.50;100.00;63355.56;5079536;28;20056;-76
2022/04/23 05:16:54;;;;;;;37.00;21.45;;;;;;;-141.50;100.00;63355.56;5080906;28;20103;-77
2022/04/23 05:19:21;;;;;;;36.80;20.85;;;;;;;-141.50;100.00;63355.56;5074368;28;20049;-78
2022/04/23 05:21:47;;;;;;;34.90;21.33;;;;;;;-141.50;100.00;63355.56;5072942;28;20516;-78
2022/04/23 05:24:14;;;;;;;36.33;21.40;;;;;;;-141.50;100.00;63355.56;5071642;28;20083;-76
2022/04/23 05:26:40;;;;;;;36.05;21.00;;;;;;;-141.50;100.00;63355.56;5070597;28;20087;-76
2022/04/23 05:29:07;;;;;;;37.58;20.85;;;;;;;-141.50;100.00;63355.56;5071792;28;20191;-76
2022/04/23 05:31:33;;;;;;;30.70;18.90;;;;;;;-141.50;100.00;63355.56;5084334;28;20076;-77
2022/04/23 05:34:00;;;;;;;34.83;20.45;;;;;;;-141.50;100.00;63355.56;5080775;28;20054;-75
2022/04/23 05:36:26;;;;;;;33.63;20.52;;;;;;;-141.50;100.00;63355.56;5080127;28;20067;-76
2022/04/23 05:38:55;;;;;;;31.38;19.33;;;;;;;-141.50;100.00;63355.56;5074538;28;20049;-77
2022/04/23 05:41:23;;;;;;;31.33;19.60;;;;;;;-141.50;100.00;63355.56;5070371;28;20063;-76
2022/04/23 05:43:49;;;;;;;33.55;20.83;;;;;;;-141.50;100.00;63355.56;5073181;28;20135;-75
2022/04/23 05:46:17;;;;;;;34.70;20.27;;;;;;;-141.50;100.00;63355.56;5073225;28;20568;-78
2022/04/23 05:48:44;;;;;;;31.02;19.17;;;;;;;-141.50;100.00;63355.56;5074471;28;20124;-77
2022/04/23 05:51:10;;;;;;;31.15;18.25;;;;;;;-141.50;100.00;63355.56;5075268;28;20092;-77
2022/04/23 05:53:38;;;;;;;35.55;18.90;;;;;;;-141.50;100.00;63355.56;5076168;28;20056;-78
2022/04/23 05:56:05;;;;;;;27.33;17.67;;;;;;;-141.50;100.00;63355.56;5075022;28;20053;-76
2022/04/23 05:58:34;;;;;;;32.78;19.02;;;;;;;-141.50;100.00;63355.56;5085857;28;20423;-76
2022/04/23 06:01:01;;;;;;;31.42;18.88;;;;;;;-141.50;100.00;63355.56;5099798;28;20048;-77
2022/04/23 06:03:30;;;;;;;27.85;17.30;;;;;;;-141.50;100.00;63355.56;5099641;28;20072;-75
2022/04/23 06:05:57;;;;;;;27.67;17.65;;;;;;;-141.50;100.00;63355.56;5098339;28;20044;-76
2022/04/23 06:08:24;;;;;;;25.88;16.67;;;;;;;-141.50;100.00;63355.56;5085153;28;20129;-77
2022/04/23 06:10:50;;;;;;;30.38;18.23;;;;;;;-141.50;100.00;63355.56;5091293;28;20123;-76
2022/04/23 06:13:17;;;;;;;32.22;17.15;;;;;;;-141.50;100.00;63355.56;5079986;28;20092;-77
2022/04/23 06:15:44;;;;;;;26.20;16.00;;;;;;;-141.50;100.00;63355.56;5082399;28;20447;-76
2022/04/23 06:18:10;;;;;;;24.88;15.82;;;;;;;-141.50;100.00;63355.56;5088256;28;20089;-76
2022/04/23 06:20:37;;;;;;;25.67;15.57;;;;;;;-141.50;100.00;63355.56;5086155;28;20143;-77
2022/04/23 06:23:04;;;;;;;24.60;15.13;;;;;;;-141.50;100.00;63355.56;5084616;28;20682;-75
2022/04/23 06:25:31;;;;;;;26.40;14.50;;;;;;;-141.50;100.00;63355.56;5079765;28;20135;-78
2022/04/23 06:27:58;;;;;;;22.13;14.70;;;;;;;-141.50;100.00;63355.56;5082184;28;20059;-76
2022/04/23 06:30:25;;;;;;;23.88;14.80;;;;;;;-141.50;100.00;63355.56;5077957;28;20087;-75
2022/04/23 06:32:51;;;;;;;21.67;13.77;;;;;;;-141.50;100.00;63355.56;5085111;28;20094;-77
2022/04/23 06:35:18;;;;;;;22.10;14.35;;;;;;;-141.50;100.00;63355.56;5082244;28;20127;-78
2022/04/23 06:37:47;;;;;;;20.58;14.35;;;;;;;-141.50;100.00;63355.56;5082272;28;20155;-77
2022/04/23 06:40:13;;;;;;;21.33;14.35;;;;;;;-141.50;100.00;63355.56;5079812;28;20086;-77
2022/04/23 06:42:40;;;;;;;23.45;14.35;;;;;;;-141.50;100.00;63355.56;5078515;28;20129;-77
2022/04/23 06:45:07;;;;;;;19.80;14.45;;;;;;;-141.50;100.00;63355.56;5079041;28;20060;-75
2022/04/23 06:47:34;;;;;;;21.88;14.15;;;;;;;-141.50;100.00;63355.56;5079155;28;20552;-75
2022/04/23 06:50:01;;;;;;;20.95;14.27;;;;;;;-141.50;100.00;63355.56;5077305;28;20094;-77
2022/04/23 06:52:27;;;;;;;20.85;14.07;;;;;;;-141.50;100.00;63355.56;5073563;28;20060;-77
2022/04/23 06:54:54;;;;;;;19.13;13.23;;;;;;;-141.50;100.00;63355.56;5071238;28;20053;-75
2022/04/23 06:57:25;;;;;;;21.13;13.38;;;;;;;-141.50;100.00;63355.56;5079903;28;20439;-77
2022/04/23 06:59:52;;;;;;;20.83;13.85;;;;;;;-141.50;100.00;63355.56;5086870;28;20679;-77
2022/04/23 07:02:19;;;;;;;19.85;13.13;;;;;;;-141.50;100.00;63355.56;5079577;28;20080;-77
2022/04/23 07:04:46;;;;;;;21.48;13.73;;;;;;;-141.50;100.00;63355.56;5080925;28;20290;-76
2022/04/23 07:07:13;;;;;;;21.45;13.93;;;;;;;-141.50;100.00;63355.56;5076000;28;20135;-76
2022/04/23 07:09:39;;;;;;;21.85;12.80;;;;;;;-141.50;100.00;63355.56;5082387;28;20136;-78
2022/04/23 07:12:07;;;;;;;22.27;13.50;;;;;;;-141.50;100.00;63355.56;5076524;28;20536;-78
2022/04/23 07:14:33;;;;;;;21.30;13.45;;;;;;;-141.50;100.00;63355.56;5072341;28;20087;-75
2022/04/23 07:17:05;;;;;;;18.55;12.20;;;;;;;-141.50;100.00;63355.56;5072492;28;20154;-77
2022/04/23 07:19:32;;;;;;;19.05;13.10;;;;;;;-141.50;100.00;63355.56;5068824;28;20103;-77
2022/04/23 07:22:00;;;;;;;21.05;13.18;;;;;;;-141.50;100.00;63355.56;5068974;28;20483;-77
2022/04/23 07:24:26;;;;;;;18.23;12.65;;;;;;;-141.50;100.00;63355.56;5069288;28;20147;-78
2022/04/23 07:26:53;;;;;;;19.30;12.70;;;;;;;-141.50;100.00;63355.56;5073935;28;20083;-77
2022/04/23 07:29:19;;;;;;;19.02;12.45;;;;;;;-141.50;100.00;63355.56;5069512;28;20130;-76
2022/04/23 07:31:46;;;;;;;18.60;12.52;;;;;;;-141.50;100.00;63355.56;5066042;28;20052;-76
2022/04/23 07:39:44;;;;;;;18.27;11.90;;;;;;;-141.50;100.00;63355.56;5075325;28;20514;-75
2022/04/23 07:42:11;;;;;;;19.13;13.13;;;;;;;-141.50;100.00;63355.56;5066959;28;20139;-76
2022/04/23 07:44:37;;;;;;;19.73;13.38;;;;;;;-141.50;100.00;63355.56;5079318;28;20585;-75
2022/04/23 07:47:07;;;;;;;20.55;13.88;;;;;;;-141.50;100.00;63355.56;5086017;28;20091;-73
2022/04/23 07:49:36;;;;;;;20.67;14.43;;;;;;;-141.50;100.00;63355.56;5067016;28;20489;-78
2022/04/23 07:52:03;;;;;;;21.35;14.57;;;;;;;-141.50;100.00;63355.56;5064628;28;20546;-78
2022/04/23 07:54:30;;;;;;;20.90;14.77;;;;;;;-141.50;100.00;63355.56;5086840;28;20139;-77
2022/04/23 07:56:56;;;;;;;20.10;14.32;;;;;;;-141.50;100.00;63355.56;5089308;28;20446;-78
2022/04/23 07:59:24;;;;;;;19.08;13.10;;;;;;;-141.50;100.00;63355.56;5067962;28;20056;-78
2022/04/23 08:01:51;;;;;;;17.35;11.35;;;;;;;-141.50;100.00;63355.56;5072757;28;20119;-74
2022/04/23 08:04:17;;;;;;;15.77;10.73;;;;;;;-141.50;100.00;63355.56;5074810;28;20114;-77
2022/04/23 08:06:45;;;;;;;14.45;10.52;;;;;;;-141.50;100.00;63355.56;5086217;28;20517;-78
2022/04/23 08:09:12;;;;;;;14.00;10.57;;;;;;;-141.50;100.00;63355.56;5087743;28;20148;-75
2022/04/23 08:11:38;;;;;;;15.02;9.65;;;;;;;-141.50;100.00;63355.56;5077683;28;20056;-75
2022/04/23 08:14:09;;;;;;;13.70;10.20;;;;;;;-141.50;100.00;63355.56;5087860;28;20083;-77
2022/04/23 08:16:35;;;;;;;14.75;10.10;;;;;;;-141.50;100.00;63355.56;5089292;28;20076;-79
2022/04/23 08:19:03;;;;;;;14.32;9.93;;;;;;;-141.50;100.00;63355.56;5069875;28;20057;-79
2022/04/23 08:21:29;;;;;;;13.88;9.52;;;;;;;-141.50;100.00;63355.56;5068300;28;20144;-78
2022/04/23 08:23:56;;;;;;;14.60;10.52;;;;;;;-141.50;100.00;63355.56;5077401;28;20048;-79
2022/04/23 08:26:22;;;;;;;14.65;10.13;;;;;;;-141.50;100.00;63355.56;5089993;28;20119;-80
2022/04/23 08:31:34;;;;;;;16.75;10.02;;;;;;;-141.50;100.00;63355.56;5073244;28;20131;-79
2022/04/23 08:34:00;;;;;;;14.43;10.18;;;;;;;-141.50;100.00;63355.56;5070110;28;20048;-77
2022/04/23 08:36:35;;;;;;;12.40;9.32;;;;;;;-141.50;100.00;63355.56;5086550;28;20136;-80
2022/04/23 08:39:04;;;;;;;14.40;10.13;;;;;;;-141.50;100.00;63355.56;5087975;28;20056;-76
2022/04/23 08:41:32;;;;;;;11.85;8.75;;;;;;;-141.50;100.00;63355.56;5090799;28;20055;-80
2022/04/23 08:44:07;;;;;;;12.27;6.78;;;;;;;-141.50;100.00;63355.56;5090734;28;20078;-83
2022/04/23 08:46:39;;;;;;;9.20;6.60;;;;;;;-141.50;100.00;63355.56;5084608;28;20692;-82
2022/04/23 08:49:11;;;;;;;9.02;6.30;;;;;;;-141.50;100.00;63355.56;5087591;28;20543;-79
2022/04/23 08:51:39;;;;;;;10.57;6.50;;;;;;;-141.50;100.00;63355.56;5075869;28;20061;-77
2022/04/23 08:54:09;;;;;;;8.40;6.13;;;;;;;-141.50;100.00;63355.56;5075569;28;20082;-79
2022/04/23 08:56:37;;;;;;;10.60;6.30;;;;;;;-141.50;100.00;63355.56;5096257;28;20036;-77
2022/04/23 08:59:06;;;;;;;8.13;5.00;;;;;;;-141.50;100.00;63355.56;5104323;28;20055;-78
2022/04/23 09:01:35;;;;;;;10.88;6.13;;;;;;;-141.50;100.00;63355.56;5097783;28;20739;-76
2022/04/23 09:04:03;;;;;;;9.40;5.65;;;;;;;-141.50;100.00;63355.56;5077583;28;20053;-78
2022/04/23 09:06:42;;;;;;;8.07;5.18;;;;;;;-141.50;100.00;63355.56;5083074;28;20059;-78
2022/04/23 09:09:13;;;;;;;7.28;4.95;;;;;;;-141.50;100.00;63355.56;5082611;28;20084;-81
2022/04/23 09:11:49;;;;;;;9.40;4.63;;;;;;;-141.50;100.00;63355.56;5084072;28;20075;-78
2022/04/23 09:14:28;;;;;;;7.18;4.63;;;;;;;-141.50;100.00;63355.56;5091032;28;20050;-80
2022/04/23 09:25:29;;;;;;;7.05;4.50;;;;;;;-141.50;100.00;63355.56;5090714;28;20098;-77
2022/04/23 09:27:56;;;;;;;6.78;4.10;;;;;;;-141.50;100.00;63355.56;5076441;28;20135;-78
2022/04/23 09:30:22;;;;;;;7.75;3.47;;;;;;;-141.50;100.00;63355.56;5078315;28;20047;-81
2022/04/23 09:33:00;;;;;;;5.05;3.55;;;;;;;-141.50;100.00;63355.56;5077939;28;20048;-84
2022/04/23 09:35:27;;;;;;;5.97;4.03;;;;;;;-141.50;100.00;63355.56;5089726;28;20092;-83
2022/04/23 09:38:11;;;;;;;5.75;3.92;;;;;;;-141.50;100.00;63355.56;5088399;28;20083;-81
2022/04/23 09:40:38;;;;;;;6.05;3.53;;;;;;;-141.50;100.00;63355.56;5093598;28;20109;-78
2022/04/23 09:43:09;;;;;;;6.00;3.50;;;;;;;-141.50;100.00;63355.56;5094725;28;20048;-81
2022/04/23 09:45:41;;;;;;;4.85;3.33;;;;;;;-141.50;100.00;63355.56;5085493;28;20130;-79
2022/04/23 09:48:17;;;;;;;6.60;3.63;;;;;;;-141.50;100.00;63355.56;5097343;28;20060;-79
2022/04/23 09:50:47;;;;;;;5.00;3.45;;;;;;;-141.50;100.00;63355.56;5086021;28;20112;-81
2022/04/23 09:53:27;;;;;;;5.53;3.92;;;;;;;-141.50;100.00;63355.56;5074422;28;20101;-78
2022/04/23 09:56:05;;;;;;;4.25;3.10;;;;;;;-141.50;100.00;63355.56;5082256;28;20079;-77
2022/04/23 09:58:34;;;;;;;7.13;3.58;;;;;;;-141.50;100.00;63355.56;5076998;28;20086;-77
2022/04/23 10:01:02;;;;;;;4.78;2.85;;;;;;;-141.50;100.00;63355.56;5091605;28;20052;-78
2022/04/23 10:03:31;;;;;;;4.85;2.63;;;;;;;-141.50;100.00;63355.56;5076599;28;20146;-78
2022/04/23 10:05:58;;;;;;;4.25;2.90;;;;;;;-141.50;100.00;63355.56;5068935;28;20080;-71
2022/04/23 10:08:30;;;;;;;4.63;3.08;;;;;;;-141.50;100.00;63355.56;5067909;28;20048;-74
2022/04/23 10:11:06;;;;;;;5.07;2.90;;;;;;;-141.50;100.00;63355.56;5090703;28;20464;-75
2022/04/23 10:13:33;;;;;;;3.42;2.50;;;;;;;-141.50;100.00;63355.56;5100374;28;20083;-78
2022/04/23 10:16:03;;;;;;;4.35;2.65;;;;;;;-141.50;100.00;63355.56;5101253;28;20289;-79
2022/04/23 10:18:32;;;;;;;33.53;3.90;;;;;;;-141.50;100.00;63355.56;5100901;28;20054;-75
2022/04/23 10:21:02;;;;;;;9.32;2.60;;;;;;;-141.50;100.00;63355.56;5091561;28;20052;-79
2022/04/23 10:23:43;;;;;;;30.77;3.67;;;;;;;-141.50;100.00;63355.56;5097454;28;20108;-80
2022/04/23 10:26:42;;;;;;;29.48;3.63;;;;;;;-141.50;100.00;63355.56;5099588;28;20052;-79
2022/04/23 10:29:10;;;;;;;34.67;4.05;;;;;;;-141.50;100.00;63355.56;5046178;28;20056;-77
2022/04/23 10:31:37;;;;;;;6.18;2.65;;;;;;;-141.50;100.00;63355.56;5083739;28;20079;-79
2022/04/23 10:34:04;;;;;;;12.40;3.95;;;;;;;-141.50;100.00;63355.56;5091488;28;20048;-77
2022/04/23 10:36:31;;;;;;;14.35;5.60;;;;;;;-141.50;100.00;63355.56;5080913;28;20127;-81
2022/04/23 10:39:23;;;;;;;26.40;5.30;;;;;;;-141.50;100.00;63355.56;5074218;28;20147;-76
2022/04/23 10:41:53;;;;;;;70.72;8.38;;;;;;;-141.50;100.00;63355.56;5087968;28;20040;-78
2022/04/23 10:44:22;;;;;;;10.10;5.50;;;;;;;-141.50;100.00;63355.56;5091483;28;20044;-79
2022/04/23 10:46:50;;;;;;;131.15;10.38;;;;;;;-141.50;100.00;63355.56;5093533;28;20074;-78
2022/04/23 10:49:19;;;;;;;7.95;5.13;;;;;;;-141.50;100.00;63355.56;5091101;28;20556;-76
2022/04/23 10:51:48;;;;;;;56.90;8.15;;;;;;;-141.50;100.00;63355.56;5080975;28;20084;-80
2022/04/23 10:54:18;;;;;;;12.95;5.32;;;;;;;-141.50;100.00;63355.56;5083800;28;20056;-81
2022/04/23 10:56:55;;;;;;;12.68;4.97;;;;;;;-141.50;100.00;63355.56;5095700;28;20226;-78
2022/04/23 10:59:43;;;;;;;7.90;5.13;;;;;;;-141.50;100.00;63355.56;5105502;28;20241;-78
2022/04/23 11:02:18;;;;;;;12.52;5.18;;;;;;;-141.50;100.00;63355.56;5091938;28;20052;-81
2022/04/23 11:13:57;;;;;;;6.32;5.30;;;;;;;-141.50;100.00;63355.56;5087598;28;20062;-81
2022/04/23 11:16:28;;;;;;;6.55;4.90;;;;;;;-141.50;100.00;63355.56;5093417;28;20048;-82
2022/04/23 11:18:58;;;;;;;5.85;4.70;;;;;;;-141.50;100.00;63355.56;5100282;28;20048;-79
2022/04/23 11:21:29;;;;;;;7.68;4.35;;;;;;;-141.50;100.00;63355.56;5092512;28;20269;-77
2022/04/23 11:23:58;;;;;;;4.97;4.15;;;;;;;-141.50;100.00;63355.56;5071932;28;20056;-79
2022/04/23 11:26:46;;;;;;;4.35;3.88;;;;;;;-141.50;100.00;63355.56;5073136;28;20102;-82
2022/04/23 11:29:14;;;;;;;5.22;3.65;;;;;;;-141.50;100.00;63355.56;5087894;28;20052;-79